Time;durP1;ratioP1;P1;durP2;ratioP2;P2;SDS_P1;SDS_P2;PMS_P1;PMS_P2;Temp;Humidity;BMP_temperature;BMP_pressure;BME280_temperature;BME280_humidity;BME280_pressure;Samples;Min_cycle;Max_cycle;Signal;HPM_P1;HPM_P2
2022/11/07 00:01:41;;;;;;;1999.90;999.90;;;10.50;99.90;;;;;;5090196;28;20445;-69
2022/11/07 00:04:07;;;;;;;1999.90;999.90;;;10.60;99.90;;;;;;5089693;28;20484;-70
2022/11/07 00:06:36;;;;;;;1999.90;999.90;;;10.60;99.90;;;;;;5090742;28;20442;-69
2022/11/07 00:09:03;;;;;;;1999.90;999.90;;;10.70;99.90;;;;;;5091236;28;20457;-69
2022/11/07 00:11:31;;;;;;;1999.90;999.90;;;10.70;99.90;;;;;;5091324;28;20457;-69
2022/11/07 00:13:58;;;;;;;1999.90;999.90;;;10.80;99.90;;;;;;5091673;28;20967;-69
2022/11/07 00:16:27;;;;;;;1999.90;999.90;;;10.70;99.90;;;;;;5092152;28;20438;-69
2022/11/07 00:18:54;;;;;;;1999.90;999.90;;;10.70;99.90;;;;;;5092138;28;20453;-69
2022/11/07 00:21:21;;;;;;;1999.90;999.90;;;10.70;99.90;;;;;;5092159;28;20443;-69
2022/11/07 00:23:47;;;;;;;1999.90;999.90;;;10.70;99.90;;;;;;5091481;28;20478;-69
2022/11/07 00:26:15;;;;;;;1999.90;999.90;;;10.60;99.90;;;;;;5092525;28;20442;-69
2022/11/07 00:28:44;;;;;;;1999.90;999.90;;;10.70;99.90;;;;;;5093045;28;20448;-69
2022/11/07 00:31:13;;;;;;;1999.90;999.90;;;10.70;99.90;;;;;;5091684;28;21013;-69
2022/11/07 00:33:40;;;;;;;1999.90;999.90;;;10.80;99.90;;;;;;5091997;28;20465;-69
2022/11/07 00:36:08;;;;;;;1999.90;999.90;;;10.80;99.90;;;;;;5092223;28;20823;-70
2022/11/07 00:38:36;;;;;;;1999.90;999.90;;;10.90;99.90;;;;;;5092415;28;20446;-70
2022/11/07 00:41:04;;;;;;;1999.90;999.90;;;10.90;99.90;;;;;;5091223;28;20847;-70
2022/11/07 00:43:31;;;;;;;1999.90;999.90;;;10.90;99.90;;;;;;5091177;28;20453;-70
2022/11/07 00:46:03;;;;;;;1999.90;999.90;;;10.90;99.90;;;;;;5091048;28;20533;-69
2022/11/07 00:48:30;;;;;;;1999.90;999.90;;;11.00;99.90;;;;;;5091475;28;20468;-69
2022/11/07 00:50:57;;;;;;;1999.90;999.90;;;11.00;99.90;;;;;;5090806;28;20466;-69
2022/11/07 00:53:24;;;;;;;1999.90;999.90;;;11.00;99.90;;;;;;5090806;28;20442;-69
2022/11/07 00:55:51;;;;;;;1999.90;999.90;;;11.10;99.90;;;;;;5090738;28;20446;-69
2022/11/07 00:58:18;;;;;;;1999.90;999.90;;;11.10;99.90;;;;;;5091081;28;20453;-69
2022/11/07 01:00:44;;;;;;;1999.90;999.90;;;11.10;99.90;;;;;;5090864;28;20467;-69
2022/11/07 01:05:58;;;;;;;1999.90;999.90;;;11.20;99.90;;;;;;5090586;28;20477;-70
2022/11/07 01:08:25;;;;;;;1999.90;999.90;;;11.30;99.90;;;;;;5090692;28;20453;-69
2022/11/07 01:10:52;;;;;;;1999.90;999.90;;;11.20;99.90;;;;;;5090593;28;20466;-69
2022/11/07 01:13:18;;;;;;;1999.90;999.90;;;11.20;99.90;;;;;;5090166;28;20438;-69
2022/11/07 01:15:45;;;;;;;1999.90;999.90;;;11.10;99.90;;;;;;5090373;28;20434;-69
2022/11/07 01:18:14;;;;;;;1999.90;999.90;;;10.90;99.90;;;;;;5090643;28;20456;-69
2022/11/07 01:20:40;;;;;;;1999.90;999.90;;;10.80;99.90;;;;;;5090144;28;20473;-69
2022/11/07 01:23:07;;;;;;;1999.90;999.90;;;10.80;99.90;;;;;;5090447;28;20446;-69
2022/11/07 01:25:36;;;;;;;1999.90;999.90;;;10.80;99.90;;;;;;5090556;28;20477;-69
2022/11/07 01:28:04;;;;;;;1999.90;999.90;;;10.70;99.90;;;;;;5090863;28;20947;-69
2022/11/07 01:30:30;;;;;;;1999.90;999.90;;;10.70;99.90;;;;;;5090797;28;20462;-69
2022/11/07 01:32:57;;;;;;;1999.90;999.90;;;10.60;99.90;;;;;;5089907;28;20549;-69
2022/11/07 01:35:25;;;;;;;1999.90;999.90;;;10.60;99.90;;;;;;5089567;28;20486;-69
2022/11/07 01:37:52;;;;;;;1999.90;999.90;;;10.50;99.90;;;;;;5090588;28;20944;-69
2022/11/07 01:40:19;;;;;;;1999.90;999.90;;;10.60;99.90;;;;;;5090274;28;20465;-69
2022/11/07 01:42:46;;;;;;;1999.90;999.90;;;10.60;99.90;;;;;;5089734;28;20442;-69
2022/11/07 01:45:19;;;;;;;1999.90;999.90;;;10.50;99.90;;;;;;5089812;28;20857;-69
2022/11/07 01:47:47;;;;;;;1999.90;999.90;;;10.50;99.90;;;;;;5090264;28;20446;-69
2022/11/07 01:50:14;;;;;;;1999.90;999.90;;;10.60;99.90;;;;;;5090322;28;20462;-69
2022/11/07 01:52:45;;;;;;;1999.90;999.90;;;10.60;99.90;;;;;;5089467;28;20443;-69
2022/11/07 01:55:15;;;;;;;1999.90;999.90;;;10.50;99.90;;;;;;5089621;28;21146;-69
2022/11/07 01:57:45;;;;;;;1999.90;999.90;;;10.60;99.90;;;;;;5090213;28;20924;-69
2022/11/07 02:00:15;;;;;;;1999.90;999.90;;;10.60;99.90;;;;;;5089844;28;20466;-69
2022/11/07 02:02:44;;;;;;;1999.90;999.90;;;10.60;99.90;;;;;;5089239;28;20457;-69
2022/11/07 02:05:17;;;;;;;1999.90;999.90;;;10.70;99.90;;;;;;5089770;28;20474;-69
2022/11/07 02:07:46;;;;;;;1999.90;999.90;;;10.70;99.90;;;;;;5090046;28;20461;-69
2022/11/07 02:10:14;;;;;;;1999.90;999.90;;;10.70;99.90;;;;;;5089879;28;20469;-69
2022/11/07 02:12:41;;;;;;;1999.90;999.90;;;10.70;99.90;;;;;;5089007;28;20438;-69
2022/11/07 02:15:10;;;;;;;1999.90;999.90;;;10.80;99.90;;;;;;5089708;28;20814;-69
2022/11/07 02:17:37;;;;;;;1999.90;999.90;;;10.80;99.90;;;;;;5090009;28;20464;-69
2022/11/07 02:20:04;;;;;;;1999.90;999.90;;;10.80;99.90;;;;;;5090036;28;20462;-69
2022/11/07 02:22:36;;;;;;;1999.90;999.90;;;10.80;99.90;;;;;;5089141;28;20449;-69
2022/11/07 02:25:07;;;;;;;1999.90;999.90;;;10.80;99.90;;;;;;5089515;28;20991;-69
2022/11/07 02:27:35;;;;;;;1999.90;999.90;;;10.80;99.90;;;;;;5089749;28;20453;-70
2022/11/07 02:30:06;;;;;;;1999.90;999.90;;;10.80;99.90;;;;;;5089924;28;20478;-69
2022/11/07 02:32:32;;;;;;;1999.90;999.90;;;10.80;99.90;;;;;;5089026;28;20446;-69
2022/11/07 02:35:01;;;;;;;1999.90;999.90;;;10.70;99.90;;;;;;5090506;28;20939;-69
2022/11/07 02:37:30;;;;;;;1999.90;999.90;;;10.70;99.90;;;;;;5089539;28;20834;-69
2022/11/07 02:39:58;;;;;;;1999.90;999.90;;;10.80;99.90;;;;;;5089539;28;20489;-69
2022/11/07 02:42:42;;;;;;;1999.90;999.90;;;10.90;99.90;;;;;;5089162;28;20817;-69
2022/11/07 02:45:10;;;;;;;1999.90;999.90;;;10.90;99.90;;;;;;5089269;28;20888;-69
2022/11/07 02:47:37;;;;;;;1999.90;999.90;;;10.90;99.90;;;;;;5093657;28;20450;-69
2022/11/07 02:50:07;;;;;;;1999.90;999.90;;;11.00;99.90;;;;;;5093453;28;20473;-69
2022/11/07 02:52:34;;;;;;;1999.90;999.90;;;11.00;99.90;;;;;;5093212;28;20852;-69
2022/11/07 02:55:01;;;;;;;1999.90;999.90;;;11.00;99.90;;;;;;5093031;28;20960;-69
2022/11/07 02:57:29;;;;;;;1999.90;999.90;;;11.00;99.90;;;;;;5093630;28;20955;-70
2022/11/07 02:59:56;;;;;;;1999.90;999.90;;;11.10;99.90;;;;;;5093155;28;21010;-69
2022/11/07 03:02:23;;;;;;;1999.90;999.90;;;11.10;99.90;;;;;;5092583;28;20454;-69
2022/11/07 03:04:49;;;;;;;1999.90;999.90;;;11.10;99.90;;;;;;5092767;28;20485;-70
2022/11/07 03:07:17;;;;;;;1999.90;999.90;;;11.10;99.90;;;;;;5093291;28;20446;-69
2022/11/07 03:09:44;;;;;;;1999.90;999.90;;;11.20;99.90;;;;;;5093035;28;20984;-69
2022/11/07 03:12:10;;;;;;;1999.90;999.90;;;11.20;99.90;;;;;;5092525;28;20450;-69
2022/11/07 03:14:38;;;;;;;1999.90;999.90;;;11.20;99.90;;;;;;5092343;28;20442;-69
2022/11/07 03:17:05;;;;;;;1999.90;999.90;;;11.20;99.90;;;;;;5093238;28;20449;-69
2022/11/07 03:19:32;;;;;;;1999.90;999.90;;;11.20;99.90;;;;;;5093021;28;20502;-69
2022/11/07 03:21:59;;;;;;;1999.90;999.90;;;11.30;99.90;;;;;;5092324;28;20442;-69
2022/11/07 03:24:26;;;;;;;1999.90;999.90;;;11.30;99.90;;;;;;5092787;28;20453;-70
2022/11/07 03:26:52;;;;;;;1999.90;999.90;;;11.20;99.90;;;;;;5092889;28;20452;-69
2022/11/07 03:29:19;;;;;;;1999.90;999.90;;;11.30;99.90;;;;;;5092968;28;20963;-69
2022/11/07 03:31:47;;;;;;;1999.90;999.90;;;11.40;99.90;;;;;;5091969;28;20446;-69
2022/11/07 03:34:14;;;;;;;1999.90;999.90;;;11.30;99.90;;;;;;5092738;28;20461;-69
2022/11/07 03:36:41;;;;;;;1999.90;999.90;;;11.30;99.90;;;;;;5092906;28;20433;-69
2022/11/07 03:39:07;;;;;;;1999.90;999.90;;;11.40;99.90;;;;;;5093111;28;20446;-69
2022/11/07 03:41:34;;;;;;;1999.90;999.90;;;11.40;99.90;;;;;;5092441;28;20445;-69
2022/11/07 03:44:01;;;;;;;1999.90;999.90;;;11.50;99.90;;;;;;5092672;28;20439;-69
2022/11/07 03:46:28;;;;;;;1999.90;999.90;;;11.50;99.90;;;;;;5092087;28;20482;-69
2022/11/07 03:48:56;;;;;;;1999.90;999.90;;;11.60;99.90;;;;;;5092885;28;20446;-69
2022/11/07 03:51:22;;;;;;;1999.90;999.90;;;11.60;99.90;;;;;;5092084;28;20943;-70
2022/11/07 03:53:49;;;;;;;1999.90;999.90;;;11.60;99.90;;;;;;5092080;28;20450;-70
2022/11/07 03:56:16;;;;;;;1999.90;999.90;;;11.70;99.90;;;;;;5092118;28;20434;-69
2022/11/07 03:58:43;;;;;;;1999.90;999.90;;;11.70;99.90;;;;;;5092290;28;20445;-69
2022/11/07 04:01:11;;;;;;;1999.90;999.90;;;11.80;99.90;;;;;;5091767;28;20470;-69
2022/11/07 04:03:37;;;;;;;1999.90;999.90;;;11.80;99.90;;;;;;5091690;28;20477;-69
2022/11/07 04:06:06;;;;;;;1999.90;999.90;;;11.80;99.90;;;;;;5091862;28;20505;-69
2022/11/07 04:08:33;;;;;;;1999.90;999.90;;;11.80;99.90;;;;;;5092007;28;20457;-69
2022/11/07 04:11:00;;;;;;;1999.90;999.90;;;11.80;99.90;;;;;;5091639;28;20987;-69
2022/11/07 04:18:56;;;;;;;1999.90;999.90;;;11.80;99.90;;;;;;5091948;28;20414;-69
2022/11/07 04:21:24;;;;;;;1999.90;999.90;;;11.80;99.90;;;;;;5091590;28;20442;-69
2022/11/07 04:23:51;;;;;;;1999.90;999.90;;;11.70;99.90;;;;;;5091302;28;20951;-69
2022/11/07 04:29:02;;;;;;;1999.90;999.90;;;11.70;99.90;;;;;;5091563;28;20421;-69
2022/11/07 04:31:28;;;;;;;1999.90;999.90;;;11.80;99.90;;;;;;5091180;28;20442;-69
2022/11/07 04:33:55;;;;;;;1999.90;999.90;;;11.70;99.90;;;;;;5091248;28;20446;-69
2022/11/07 04:36:23;;;;;;;1999.90;999.90;;;11.60;99.90;;;;;;5091001;28;20967;-69
2022/11/07 04:38:50;;;;;;;1999.90;999.90;;;11.60;99.90;;;;;;5091701;28;20804;-69
2022/11/07 04:41:19;;;;;;;1999.90;999.90;;;11.60;99.90;;;;;;5091202;28;20454;-69
2022/11/07 04:43:46;;;;;;;1999.90;999.90;;;11.60;99.90;;;;;;5091060;28;20472;-69
2022/11/07 04:46:13;;;;;;;1999.90;999.90;;;11.60;99.90;;;;;;5090938;28;20539;-69
2022/11/07 04:48:40;;;;;;;1999.90;999.90;;;11.60;99.90;;;;;;5091408;28;20812;-69
2022/11/07 04:51:11;;;;;;;1999.90;999.90;;;11.50;99.90;;;;;;5090722;28;20462;-69
2022/11/07 04:53:39;;;;;;;1999.90;999.90;;;11.50;99.90;;;;;;5091088;28;20480;-69
2022/11/07 04:56:06;;;;;;;1999.90;999.90;;;11.50;99.90;;;;;;5090767;28;20444;-68
2022/11/07 04:58:33;;;;;;;1999.90;999.90;;;11.50;99.90;;;;;;5091107;28;20832;-69
2022/11/07 05:01:00;;;;;;;1999.90;999.90;;;11.40;99.90;;;;;;5090278;28;20466;-69
2022/11/07 05:03:26;;;;;;;1999.90;999.90;;;11.30;99.90;;;;;;5090634;28;20458;-69
2022/11/07 05:05:53;;;;;;;1999.90;999.90;;;11.30;99.90;;;;;;5090517;28;20481;-70
2022/11/07 05:08:20;;;;;;;1999.90;999.90;;;11.20;99.90;;;;;;5090397;28;20442;-69
2022/11/07 05:10:48;;;;;;;1999.90;999.90;;;11.10;99.90;;;;;;5090550;28;20466;-69
2022/11/07 05:13:15;;;;;;;1999.90;999.90;;;11.10;99.90;;;;;;5090361;28;20439;-69
2022/11/07 05:15:42;;;;;;;1999.90;999.90;;;11.00;99.90;;;;;;5090601;28;20470;-69
2022/11/07 05:18:10;;;;;;;1999.90;999.90;;;11.00;99.90;;;;;;5090668;28;20446;-67
2022/11/07 05:20:38;;;;;;;1999.90;999.90;;;11.00;99.90;;;;;;5090577;28;20465;-67
2022/11/07 05:23:14;;;;;;;1999.90;999.90;;;10.90;99.90;;;;;;5090324;28;20442;-71
2022/11/07 05:25:42;;;;;;;1999.90;999.90;;;10.90;99.90;;;;;;5090279;28;21125;-71
2022/11/07 05:28:11;;;;;;;1999.90;999.90;;;10.90;99.90;;;;;;5090623;28;20839;-70
2022/11/07 05:30:39;;;;;;;1999.90;999.90;;;10.80;99.90;;;;;;5090061;28;20844;-71
2022/11/07 05:33:07;;;;;;;1999.90;999.90;;;10.80;99.90;;;;;;5090127;28;20512;-70
2022/11/07 05:35:33;;;;;;;1999.90;999.90;;;10.80;99.90;;;;;;5090189;28;20449;-69
2022/11/07 05:38:00;;;;;;;1999.90;999.90;;;10.70;99.90;;;;;;5090644;28;20452;-70
2022/11/07 05:40:27;;;;;;;1999.90;999.90;;;10.70;99.90;;;;;;5090484;28;20473;-70
2022/11/07 05:42:59;;;;;;;1999.90;999.90;;;10.60;99.90;;;;;;5089619;28;20445;-70
2022/11/07 05:45:27;;;;;;;1999.90;999.90;;;10.50;99.90;;;;;;5089942;28;20478;-70
2022/11/07 05:47:57;;;;;;;1999.90;999.90;;;10.50;99.90;;;;;;5090842;28;20465;-70
2022/11/07 05:50:24;;;;;;;1999.90;999.90;;;10.40;99.90;;;;;;5090464;28;20903;-71
2022/11/07 05:52:51;;;;;;;1999.90;999.90;;;10.40;99.90;;;;;;5089935;28;20480;-69
2022/11/07 05:55:18;;;;;;;1999.90;999.90;;;10.40;99.90;;;;;;5090165;28;20461;-70
2022/11/07 05:57:45;;;;;;;1999.90;999.90;;;10.40;99.90;;;;;;5090335;28;20442;-71
2022/11/07 06:00:13;;;;;;;1999.90;999.90;;;10.40;99.90;;;;;;5090417;28;20469;-71
2022/11/07 06:02:41;;;;;;;1999.90;999.90;;;10.40;99.90;;;;;;5089530;28;20434;-69
2022/11/07 06:05:09;;;;;;;1999.90;999.90;;;10.40;99.90;;;;;;5089702;28;20453;-71
2022/11/07 06:07:37;;;;;;;1999.90;999.90;;;10.40;99.90;;;;;;5090239;28;20451;-70
2022/11/07 06:10:04;;;;;;;1999.90;999.90;;;10.30;99.90;;;;;;5086088;28;20466;-70
2022/11/07 06:12:31;;;;;;;1999.90;999.90;;;10.40;99.90;;;;;;5080261;28;20973;-69
2022/11/07 06:14:58;;;;;;;1999.90;999.90;;;10.40;99.90;;;;;;5086671;28;20469;-69
2022/11/07 06:17:25;;;;;;;1999.90;999.90;;;10.40;99.90;;;;;;5085489;28;20457;-70
2022/11/07 06:19:53;;;;;;;1999.90;999.90;;;10.30;99.90;;;;;;5086000;28;20960;-71
2022/11/07 06:22:20;;;;;;;1999.90;999.90;;;10.20;99.90;;;;;;5075619;28;20522;-70
2022/11/07 06:24:47;;;;;;;1999.90;999.90;;;10.20;99.90;;;;;;5068217;28;20952;-70
2022/11/07 06:27:14;;;;;;;1999.90;999.90;;;10.10;99.90;;;;;;5067377;28;20501;-70
2022/11/07 06:29:40;;;;;;;1999.90;999.90;;;10.10;99.90;;;;;;5077522;28;20470;-70
2022/11/07 06:32:07;;;;;;;1999.90;999.90;;;10.10;99.90;;;;;;5078085;28;20447;-70
2022/11/07 06:34:34;;;;;;;1999.90;999.90;;;10.20;99.90;;;;;;5069328;28;20459;-71
2022/11/07 06:37:02;;;;;;;1999.90;999.90;;;10.20;99.90;;;;;;5069607;28;20443;-71
2022/11/07 06:39:29;;;;;;;1999.90;999.90;;;10.30;99.90;;;;;;5069456;28;21158;-71
2022/11/07 06:41:56;;;;;;;1999.90;999.90;;;10.30;99.90;;;;;;5068312;28;20443;-71
2022/11/07 06:44:22;;;;;;;1999.90;999.90;;;10.30;99.90;;;;;;5068962;28;20451;-70
2022/11/07 06:46:49;;;;;;;1999.90;999.90;;;10.40;99.90;;;;;;5069432;28;20479;-71
2022/11/07 06:49:16;;;;;;;1999.90;999.90;;;10.40;99.90;;;;;;5069414;28;20470;-69
2022/11/07 06:51:43;;;;;;;1999.90;999.90;;;10.50;99.90;;;;;;5068475;28;20447;-70
2022/11/07 06:54:12;;;;;;;1999.90;999.90;;;10.60;99.90;;;;;;5069017;28;20443;-69
2022/11/07 06:56:38;;;;;;;1999.90;999.90;;;10.70;99.90;;;;;;5068996;28;20628;-70
2022/11/07 06:59:05;;;;;;;1999.90;999.90;;;10.80;99.90;;;;;;5082905;28;20458;-70
2022/11/07 07:01:32;;;;;;;1999.90;999.90;;;10.90;99.90;;;;;;5087245;28;20442;-70
2022/11/07 07:03:59;;;;;;;1999.90;999.90;;;11.00;99.90;;;;;;5069796;28;20471;-71
2022/11/07 07:06:26;;;;;;;1999.90;999.90;;;11.00;99.90;;;;;;5066866;28;20524;-69
2022/11/07 07:08:53;;;;;;;1999.90;999.90;;;11.10;99.90;;;;;;5067215;28;20478;-69
2022/11/07 07:11:21;;;;;;;1999.90;999.90;;;11.20;99.90;;;;;;5067238;28;20435;-69
2022/11/07 07:13:48;;;;;;;1999.90;999.90;;;11.20;99.90;;;;;;5067008;28;21147;-68
2022/11/07 07:16:15;;;;;;;1999.90;999.90;;;11.30;99.90;;;;;;5066807;28;20439;-68
2022/11/07 07:18:41;;;;;;;1999.90;999.90;;;11.30;99.90;;;;;;5067343;28;20443;-69
2022/11/07 07:21:10;;;;;;;1999.90;999.90;;;11.30;99.90;;;;;;5066579;28;21078;-69
2022/11/07 07:23:37;;;;;;;1999.90;999.90;;;11.30;99.90;;;;;;5066906;28;21200;-69
2022/11/07 07:26:06;;;;;;;1999.90;999.90;;;11.40;99.90;;;;;;5066810;28;20617;-71
2022/11/07 07:28:36;;;;;;;1999.90;999.90;;;11.40;99.90;;;;;;5067355;28;20446;-69
2022/11/07 07:31:10;;;;;;;1999.90;999.90;;;11.40;99.90;;;;;;5066527;28;20470;-69
2022/11/07 07:33:37;;;;;;;1999.90;999.90;;;11.40;99.90;;;;;;5070270;28;20450;-70
2022/11/07 07:36:04;;;;;;;1999.90;999.90;;;11.40;99.90;;;;;;5070656;28;20458;-70
2022/11/07 07:38:31;;;;;;;1999.90;999.90;;;11.40;99.90;;;;;;5070893;28;20446;-70
2022/11/07 07:40:58;;;;;;;1999.90;999.90;;;11.40;99.90;;;;;;5070275;28;20478;-72
2022/11/07 07:43:25;;;;;;;1999.90;999.90;;;11.50;99.90;;;;;;5070158;28;20493;-70
2022/11/07 07:45:53;;;;;;;1999.90;999.90;;;11.50;99.90;;;;;;5070224;28;20482;-70
2022/11/07 07:48:20;;;;;;;1999.90;999.90;;;11.60;99.90;;;;;;5070229;28;20443;-70
2022/11/07 07:50:49;;;;;;;1999.90;999.90;;;11.70;99.90;;;;;;5090746;28;20480;-69
2022/11/07 07:53:16;;;;;;;1999.90;999.90;;;11.80;99.90;;;;;;5092076;28;20434;-69
2022/11/07 07:55:43;;;;;;;1999.90;999.90;;;11.90;99.90;;;;;;5091741;28;20446;-69
2022/11/07 07:58:10;;;;;;;1999.90;999.90;;;12.10;99.90;;;;;;5092386;28;20464;-70
2022/11/07 08:00:36;;;;;;;1999.90;999.90;;;12.20;99.90;;;;;;5091941;28;20466;-69
2022/11/07 08:03:07;;;;;;;1999.90;999.90;;;12.40;99.90;;;;;;5092065;28;20472;-70
2022/11/07 08:05:34;;;;;;;1999.90;999.90;;;12.60;99.90;;;;;;5092029;28;20956;-69
2022/11/07 08:08:01;;;;;;;1999.90;999.90;;;12.80;99.90;;;;;;5092515;28;20442;-70
2022/11/07 08:10:27;;;;;;;1999.90;999.90;;;13.00;99.90;;;;;;5091935;28;20466;-70
2022/11/07 08:12:54;;;;;;;1999.90;999.90;;;13.30;99.90;;;;;;5091550;28;20438;-70
2022/11/07 08:15:22;;;;;;;1999.90;999.90;;;13.50;99.90;;;;;;5091358;28;20495;-69
2022/11/07 08:17:49;;;;;;;1999.90;999.90;;;13.70;99.90;;;;;;5092355;28;20464;-69
2022/11/07 08:20:19;;;;;;;1999.90;999.90;;;13.80;99.90;;;;;;5092156;28;20527;-70
2022/11/07 08:22:46;;;;;;;1999.90;999.90;;;13.90;99.90;;;;;;5087027;28;20446;-69
2022/11/07 08:25:13;;;;;;;1999.90;999.90;;;14.10;99.90;;;;;;5087646;28;20445;-69
2022/11/07 08:27:40;;;;;;;1999.90;999.90;;;14.10;99.90;;;;;;5086276;28;20478;-69
2022/11/07 08:30:09;;;;;;;1999.90;999.90;;;14.20;99.90;;;;;;5091626;28;20467;-70
2022/11/07 08:32:36;;;;;;;1999.90;999.90;;;14.20;99.90;;;;;;5091352;28;20442;-70
2022/11/07 08:35:02;;;;;;;1999.90;999.90;;;14.20;99.90;;;;;;5091609;28;20469;-70
2022/11/07 08:37:31;;;;;;;1999.90;999.90;;;14.10;99.90;;;;;;5092120;28;20446;-69
2022/11/07 08:39:57;;;;;;;1999.90;999.90;;;14.10;99.90;;;;;;5091750;28;20485;-71
2022/11/07 08:42:24;;;;;;;1999.90;999.90;;;13.90;99.90;;;;;;5091471;28;20442;-69
2022/11/07 08:44:51;;;;;;;1999.90;999.90;;;13.80;99.90;;;;;;5090408;28;20453;-69
2022/11/07 08:47:18;;;;;;;1999.90;999.90;;;13.80;99.90;;;;;;5091387;28;20493;-69
2022/11/07 08:49:44;;;;;;;1999.90;999.90;;;13.80;99.90;;;;;;5091476;28;20556;-70
2022/11/07 08:52:11;;;;;;;1999.90;999.90;;;13.80;99.90;;;;;;5090414;28;20439;-70
2022/11/07 08:54:39;;;;;;;1999.90;999.90;;;13.80;99.90;;;;;;5090838;28;20457;-70
2022/11/07 08:57:06;;;;;;;1999.90;999.90;;;13.90;99.90;;;;;;5090992;28;20446;-69
2022/11/07 08:59:33;;;;;;;1999.90;999.90;;;14.10;99.90;;;;;;5091292;28;20554;-70
2022/11/07 09:02:00;;;;;;;1999.90;999.90;;;14.30;99.90;;;;;;5090303;28;20706;-70
2022/11/07 09:04:26;;;;;;;1999.90;999.90;;;14.40;99.90;;;;;;5090785;28;20449;-70
2022/11/07 09:06:53;;;;;;;1999.90;999.90;;;14.40;99.90;;;;;;5090731;28;20477;-70
2022/11/07 09:09:20;;;;;;;1999.90;999.90;;;14.50;99.90;;;;;;5090718;28;20462;-69
2022/11/07 09:11:48;;;;;;;1999.90;999.90;;;14.50;99.90;;;;;;5090221;28;20441;-69
2022/11/07 09:14:15;;;;;;;1999.90;999.90;;;14.50;99.90;;;;;;5090957;28;20438;-70
2022/11/07 09:16:41;;;;;;;1999.90;999.90;;;14.60;99.90;;;;;;5090891;28;20445;-69
2022/11/07 09:19:08;;;;;;;1999.90;999.90;;;14.60;99.90;;;;;;5090777;28;20450;-69
2022/11/07 09:21:35;;;;;;;1999.90;999.90;;;14.70;99.90;;;;;;5090025;28;20978;-69
2022/11/07 09:24:02;;;;;;;1999.90;999.90;;;14.70;99.90;;;;;;5087202;28;20924;-70
2022/11/07 09:26:29;;;;;;;1999.90;999.90;;;14.90;99.90;;;;;;5087592;28;20482;-70
2022/11/07 09:28:57;;;;;;;1999.90;999.90;;;15.00;99.90;;;;;;5086948;28;20441;-70
2022/11/07 09:31:23;;;;;;;1999.90;999.90;;;15.20;99.90;;;;;;5089912;28;20442;-71
2022/11/07 09:33:50;;;;;;;1999.90;999.90;;;15.30;99.90;;;;;;5089839;28;20447;-70
2022/11/07 09:36:17;;;;;;;1999.90;999.90;;;15.40;99.90;;;;;;5089971;28;20427;-69
2022/11/07 09:38:44;;;;;;;1999.90;999.90;;;15.40;99.90;;;;;;5090052;28;20438;-71
2022/11/07 09:41:23;;;;;;;1999.90;999.90;;;15.40;99.90;;;;;;5089540;28;20450;-71
2022/11/07 09:44:08;;;;;;;1999.90;999.90;;;15.50;99.90;;;;;;5103506;28;20948;-70
2022/11/07 09:46:55;;;;;;;1999.90;999.90;;;15.60;99.90;;;;;;5089844;28;20474;-70
2022/11/07 09:49:27;;;;;;;1999.90;999.90;;;15.80;99.90;;;;;;5090152;28;20836;-70
2022/11/07 09:51:59;;;;;;;1999.90;999.90;;;15.90;99.90;;;;;;5089235;28;20442;-71
2022/11/07 09:54:29;;;;;;;1999.90;999.90;;;16.00;99.90;;;;;;5089384;28;20443;-70
2022/11/07 09:56:58;;;;;;;1999.90;999.90;;;16.10;99.90;;;;;;5089797;28;20796;-70
2022/11/07 09:59:33;;;;;;;1999.90;999.90;;;16.10;99.90;;;;;;5089508;28;20470;-70
2022/11/07 10:02:00;;;;;;;1999.90;999.90;;;16.10;99.90;;;;;;5089331;28;20434;-70
2022/11/07 10:04:27;;;;;;;1999.90;999.90;;;16.30;99.90;;;;;;5089374;28;20439;-70
2022/11/07 10:06:59;;;;;;;1999.90;999.90;;;16.40;99.90;;;;;;5089758;28;20470;-70
2022/11/07 10:09:38;;;;;;;1999.90;999.90;;;16.40;99.90;;;;;;5089696;28;20470;-69
2022/11/07 10:12:14;;;;;;;1999.90;999.90;;;16.50;99.90;;;;;;5089028;28;20430;-70
2022/11/07 10:14:52;;;;;;;1999.90;999.90;;;16.60;99.90;;;;;;5089488;28;20812;-70
2022/11/07 10:17:30;;;;;;;1999.90;999.90;;;16.70;99.90;;;;;;5089865;28;20445;-71
2022/11/07 10:20:17;;;;;;;1999.90;999.90;;;16.80;99.90;;;;;;5089715;28;20466;-69
2022/11/07 10:23:06;;;;;;;1999.90;999.90;;;16.80;99.90;;;;;;5089115;28;20441;-69
2022/11/07 10:25:40;;;;;;;1999.90;999.90;;;16.80;99.90;;;;;;5089226;28;20446;-70
2022/11/07 10:28:14;;;;;;;1999.90;999.90;;;17.00;99.90;;;;;;5089504;28;20475;-71
2022/11/07 10:30:44;;;;;;;1999.90;999.90;;;17.10;99.90;;;;;;5088925;28;20465;-70
2022/11/07 10:33:20;;;;;;;1999.90;999.90;;;17.20;99.90;;;;;;5089277;28;20453;-70
2022/11/07 10:35:53;;;;;;;1999.90;999.90;;;17.30;99.90;;;;;;5073430;28;20501;-70
2022/11/07 10:38:26;;;;;;;1999.90;999.90;;;17.40;99.90;;;;;;5095527;28;20437;-70
2022/11/07 10:40:53;;;;;;;1999.90;999.90;;;17.50;99.90;;;;;;5095982;28;20462;-71
2022/11/07 10:43:28;;;;;;;1999.90;999.90;;;17.60;99.90;;;;;;5088590;28;20434;-70
2022/11/07 10:45:57;;;;;;;1999.90;999.90;;;17.60;99.90;;;;;;5089642;28;20432;-70
2022/11/07 10:48:28;;;;;;;1999.90;999.90;;;17.60;99.90;;;;;;5089102;28;21011;-70
2022/11/07 10:50:55;;;;;;;1999.90;999.90;;;17.80;99.90;;;;;;5089112;28;20466;-71
2022/11/07 10:53:24;;;;;;;1999.90;999.90;;;17.90;99.90;;;;;;5088709;28;20446;-71
2022/11/07 10:55:53;;;;;;;1999.90;999.90;;;17.70;99.90;;;;;;5090211;28;20932;-71
2022/11/07 10:58:22;;;;;;;1999.90;999.90;;;17.60;99.90;;;;;;5091063;28;20443;-72
2022/11/07 11:01:02;;;;;;;1999.90;999.90;;;17.40;99.90;;;;;;5090067;28;20458;-72
2022/11/07 11:03:32;;;;;;;1999.90;999.90;;;17.30;99.90;;;;;;5089312;28;20446;-73
2022/11/07 11:06:10;;;;;;;1999.90;999.90;;;16.90;99.90;;;;;;5089085;28;20439;-72
2022/11/07 11:08:38;;;;;;;1999.90;999.90;;;16.70;99.90;;;;;;5091113;28;21018;-72
2022/11/07 11:11:27;;;;;;;1999.90;999.90;;;16.60;99.90;;;;;;5091544;28;20825;-72
2022/11/07 11:14:02;;;;;;;1999.90;999.90;;;16.60;99.90;;;;;;5088563;28;20932;-72
2022/11/07 11:16:33;;;;;;;1999.90;999.90;;;16.70;99.90;;;;;;5097355;28;20438;-72
2022/11/07 11:19:02;;;;;;;1999.90;999.90;;;16.90;99.90;;;;;;5092721;28;20430;-72
2022/11/07 11:21:39;;;;;;;1999.90;999.90;;;17.20;99.90;;;;;;5092747;28;20491;-72
2022/11/07 11:24:15;;;;;;;1999.90;999.90;;;17.30;99.90;;;;;;5092467;28;20444;-72
2022/11/07 11:26:44;;;;;;;1999.90;999.90;;;17.40;99.90;;;;;;5092584;28;20442;-73
2022/11/07 11:29:14;;;;;;;1999.90;999.90;;;17.60;99.90;;;;;;5092395;28;20511;-72
2022/11/07 11:31:48;;;;;;;1999.90;999.90;;;17.80;99.90;;;;;;5090167;28;20438;-72
2022/11/07 11:34:20;;;;;;;1999.90;999.90;;;18.20;99.90;;;;;;5092343;28;20453;-71
2022/11/07 11:36:53;;;;;;;1999.90;999.90;;;18.30;99.90;;;;;;5091983;28;20442;-71
2022/11/07 11:39:27;;;;;;;1999.90;999.90;;;18.40;99.90;;;;;;5092123;28;20541;-71
2022/11/07 11:41:56;;;;;;;1999.90;999.90;;;18.50;99.90;;;;;;5092021;28;20453;-71
2022/11/07 11:44:31;;;;;;;1999.90;999.90;;;18.40;99.90;;;;;;5092462;28;20446;-71
2022/11/07 11:47:11;;;;;;;1999.90;999.90;;;18.40;99.90;;;;;;5092104;28;20505;-72
2022/11/07 11:49:43;;;;;;;1999.90;999.90;;;18.30;99.90;;;;;;5092125;28;20504;-72
2022/11/07 11:52:15;;;;;;;1999.90;999.90;;;18.30;99.90;;;;;;5091549;28;20843;-71
2022/11/07 11:54:43;;;;;;;1999.90;999.90;;;18.00;99.90;;;;;;5091962;28;20714;-71
2022/11/07 11:57:14;;;;;;;1999.90;999.90;;;17.70;99.90;;;;;;5091976;28;20819;-71
2022/11/07 12:00:05;;;;;;;1999.90;999.90;;;17.30;99.90;;;;;;5091735;28;20466;-71
2022/11/07 12:03:11;;;;;;;1999.90;999.90;;;16.90;99.90;;;;;;5088517;28;20507;-69
2022/11/07 12:05:55;;;;;;;1999.90;999.90;;;16.60;99.90;;;;;;5082251;28;20528;-71
2022/11/07 12:08:37;;;;;;;1999.90;999.90;;;16.50;99.90;;;;;;5091338;28;20480;-70
2022/11/07 12:11:09;;;;;;;1999.90;999.90;;;16.40;99.90;;;;;;5091354;28;20987;-71
2022/11/07 12:13:44;;;;;;;1999.90;999.90;;;16.40;99.90;;;;;;5091481;28;20442;-70
2022/11/07 12:16:21;;;;;;;1999.90;999.90;;;16.50;99.90;;;;;;5091772;28;20438;-70
2022/11/07 12:18:55;;;;;;;1999.90;999.90;;;16.50;99.90;;;;;;5091231;28;20469;-71